Terminal Aerodrome Forecast
Issued by NWS

Home | Current Version | Previous Version | Graphics & Text | Print | Product List | Glossary On
Versions: 1 2 3 4 5 6 7 8 9 10 11 12 13 14 15 16 17 18 19 20 21 22 23 24 25 26
000
FTUS43 KGRB 130520
TAFRHI
TAF
KRHI 130520Z 1306/1406 18005KT 6SM -SN OVC030
      TEMPO 1306/1310 1SM -SN
     FM131000 09006KT 1SM -SN OVC017
     FM131800 04006KT 2SM -SN OVC015
     FM132300 03006KT 3SM -SN OVC022
     FM140300 35003KT P6SM -SHSN BKN040=

USA.gov is the U.S. government's official web portal to all federal, state and local government web resources and services.